sensor_id;sensor_type;location;lat;lon;timestamp;temperature;humidity
78315;SHT31;68596;52.080;4.662;2024-03-23T00:53:45;10.99;73.80
78315;SHT31;68596;52.080;4.662;2024-03-23T00:56:29;10.97;73.42
78315;SHT31;68596;52.080;4.662;2024-03-23T00:59:14;10.97;73.35
78315;SHT31;68596;52.080;4.662;2024-03-23T01:01:58;10.93;72.97
78315;SHT31;68596;52.080;4.662;2024-03-23T01:04:42;10.90;73.23
78315;SHT31;68596;52.080;4.662;2024-03-23T01:07:26;10.90;73.15
78315;SHT31;68596;52.080;4.662;2024-03-23T01:10:10;10.86;73.17
78315;SHT31;68596;52.080;4.662;2024-03-23T01:12:54;10.86;72.79
78315;SHT31;68596;52.080;4.662;2024-03-23T01:15:38;10.81;72.70
78315;SHT31;68596;52.080;4.662;2024-03-23T01:18:23;10.74;72.82
78315;SHT31;68596;52.080;4.662;2024-03-23T01:21:10;10.70;72.48
78315;SHT31;68596;52.080;4.662;2024-03-23T01:23:54;10.66;72.11
78315;SHT31;68596;52.080;4.662;2024-03-23T01:26:38;10.60;71.95
78315;SHT31;68596;52.080;4.662;2024-03-23T01:29:23;10.56;70.89
78315;SHT31;68596;52.080;4.662;2024-03-23T01:32:07;10.52;72.10
78315;SHT31;68596;52.080;4.662;2024-03-23T01:34:51;10.48;72.07
78315;SHT31;68596;52.080;4.662;2024-03-23T01:37:36;10.42;71.65
78315;SHT31;68596;52.080;4.662;2024-03-23T01:40:20;10.42;72.01
78315;SHT31;68596;52.080;4.662;2024-03-23T01:43:07;10.36;71.82
78315;SHT31;68596;52.080;4.662;2024-03-23T01:45:54;10.32;70.62
78315;SHT31;68596;52.080;4.662;2024-03-23T01:48:39;10.26;70.54
78315;SHT31;68596;52.080;4.662;2024-03-23T01:51:23;10.26;70.69
78315;SHT31;68596;52.080;4.662;2024-03-23T01:54:09;10.26;70.57
78315;SHT31;68596;52.080;4.662;2024-03-23T01:56:54;10.26;70.06
78315;SHT31;68596;52.080;4.662;2024-03-23T01:59:38;10.25;70.06
78315;SHT31;68596;52.080;4.662;2024-03-23T02:02:22;10.23;69.81
78315;SHT31;68596;52.080;4.662;2024-03-23T02:05:06;10.23;69.77
78315;SHT31;68596;52.080;4.662;2024-03-23T02:07:51;10.19;67.97
78315;SHT31;68596;52.080;4.662;2024-03-23T02:10:36;10.15;68.54
78315;SHT31;68596;52.080;4.662;2024-03-23T02:13:20;10.12;68.93
78315;SHT31;68596;52.080;4.662;2024-03-23T02:16:06;10.09;68.77
78315;SHT31;68596;52.080;4.662;2024-03-23T02:18:50;10.06;69.46
78315;SHT31;68596;52.080;4.662;2024-03-23T02:21:34;10.03;69.56
78315;SHT31;68596;52.080;4.662;2024-03-23T02:24:18;10.01;69.82
78315;SHT31;68596;52.080;4.662;2024-03-23T02:27:03;9.97;70.03
78315;SHT31;68596;52.080;4.662;2024-03-23T02:29:47;9.92;69.96
78315;SHT31;68596;52.080;4.662;2024-03-23T02:32:31;9.88;70.30
78315;SHT31;68596;52.080;4.662;2024-03-23T02:35:15;9.90;70.26
78315;SHT31;68596;52.080;4.662;2024-03-23T02:37:59;9.80;70.34
78315;SHT31;68596;52.080;4.662;2024-03-23T02:40:43;9.74;70.50
78315;SHT31;68596;52.080;4.662;2024-03-23T02:43:27;9.70;71.54
78315;SHT31;68596;52.080;4.662;2024-03-23T02:46:11;9.70;70.68
78315;SHT31;68596;52.080;4.662;2024-03-23T02:48:55;9.64;70.91
78315;SHT31;68596;52.080;4.662;2024-03-23T02:51:40;9.60;70.76
78315;SHT31;68596;52.080;4.662;2024-03-23T02:54:25;9.54;70.89
78315;SHT31;68596;52.080;4.662;2024-03-23T02:57:09;9.48;70.91
78315;SHT31;68596;52.080;4.662;2024-03-23T02:59:53;9.46;70.95
78315;SHT31;68596;52.080;4.662;2024-03-23T03:02:37;9.40;71.10
78315;SHT31;68596;52.080;4.662;2024-03-23T03:05:21;9.40;71.36
78315;SHT31;68596;52.080;4.662;2024-03-23T03:08:06;9.39;71.54
78315;SHT31;68596;52.080;4.662;2024-03-23T03:10:51;9.33;71.40
78315;SHT31;68596;52.080;4.662;2024-03-23T03:13:35;9.26;71.43
78315;SHT31;68596;52.080;4.662;2024-03-23T03:16:19;9.27;72.15
78315;SHT31;68596;52.080;4.662;2024-03-23T03:19:03;9.29;71.87
78315;SHT31;68596;52.080;4.662;2024-03-23T03:21:47;9.29;71.26
78315;SHT31;68596;52.080;4.662;2024-03-23T03:24:34;9.26;71.42
78315;SHT31;68596;52.080;4.662;2024-03-23T03:27:18;9.26;71.61
78315;SHT31;68596;52.080;4.662;2024-03-23T03:30:03;9.16;71.80
78315;SHT31;68596;52.080;4.662;2024-03-23T03:32:51;9.19;72.11
78315;SHT31;68596;52.080;4.662;2024-03-23T03:35:36;9.26;71.66
78315;SHT31;68596;52.080;4.662;2024-03-23T03:38:22;9.22;71.51
78315;SHT31;68596;52.080;4.662;2024-03-23T03:41:07;9.24;71.01
78315;SHT31;68596;52.080;4.662;2024-03-23T03:43:51;9.27;71.17
78315;SHT31;68596;52.080;4.662;2024-03-23T03:46:35;9.29;71.14
78315;SHT31;68596;52.080;4.662;2024-03-23T03:49:19;9.29;71.28
78315;SHT31;68596;52.080;4.662;2024-03-23T03:52:04;9.30;70.99
78315;SHT31;68596;52.080;4.662;2024-03-23T03:54:48;9.27;70.76
78315;SHT31;68596;52.080;4.662;2024-03-23T03:57:33;9.20;70.59
78315;SHT31;68596;52.080;4.662;2024-03-23T04:00:17;9.20;70.95
78315;SHT31;68596;52.080;4.662;2024-03-23T04:03:02;9.22;71.26
78315;SHT31;68596;52.080;4.662;2024-03-23T04:05:53;9.23;71.07
78315;SHT31;68596;52.080;4.662;2024-03-23T04:08:38;9.26;70.79
78315;SHT31;68596;52.080;4.662;2024-03-23T04:11:22;9.19;70.70
78315;SHT31;68596;52.080;4.662;2024-03-23T04:14:06;9.19;71.13
78315;SHT31;68596;52.080;4.662;2024-03-23T04:16:50;9.22;71.18
78315;SHT31;68596;52.080;4.662;2024-03-23T04:19:34;9.24;70.64
78315;SHT31;68596;52.080;4.662;2024-03-23T04:22:18;9.23;70.36
78315;SHT31;68596;52.080;4.662;2024-03-23T04:25:03;9.27;70.31
78315;SHT31;68596;52.080;4.662;2024-03-23T04:27:50;9.22;70.46
78315;SHT31;68596;52.080;4.662;2024-03-23T04:30:34;9.29;69.91
78315;SHT31;68596;52.080;4.662;2024-03-23T04:33:18;9.26;69.89
78315;SHT31;68596;52.080;4.662;2024-03-23T04:36:02;9.24;70.08
78315;SHT31;68596;52.080;4.662;2024-03-23T04:38:47;9.23;70.20
78315;SHT31;68596;52.080;4.662;2024-03-23T04:41:34;9.22;70.32
78315;SHT31;68596;52.080;4.662;2024-03-23T04:44:18;9.17;70.10
78315;SHT31;68596;52.080;4.662;2024-03-23T04:47:02;9.16;70.14
78315;SHT31;68596;52.080;4.662;2024-03-23T04:49:46;9.17;70.60
78315;SHT31;68596;52.080;4.662;2024-03-23T04:52:30;9.16;70.03
78315;SHT31;68596;52.080;4.662;2024-03-23T04:55:14;9.16;70.28
78315;SHT31;68596;52.080;4.662;2024-03-23T04:57:58;9.17;69.32
78315;SHT31;68596;52.080;4.662;2024-03-23T05:00:42;9.13;69.94
78315;SHT31;68596;52.080;4.662;2024-03-23T05:03:26;9.10;70.05
78315;SHT31;68596;52.080;4.662;2024-03-23T05:06:10;9.10;70.15
78315;SHT31;68596;52.080;4.662;2024-03-23T05:08:55;9.06;70.44
78315;SHT31;68596;52.080;4.662;2024-03-23T05:11:39;9.09;69.81
78315;SHT31;68596;52.080;4.662;2024-03-23T05:14:24;9.15;70.66
78315;SHT31;68596;52.080;4.662;2024-03-23T05:17:08;9.17;70.88
78315;SHT31;68596;52.080;4.662;2024-03-23T05:19:52;9.23;70.95
78315;SHT31;68596;52.080;4.662;2024-03-23T05:22:36;9.26;70.39
78315;SHT31;68596;52.080;4.662;2024-03-23T05:25:20;9.29;70.87
78315;SHT31;68596;52.080;4.662;2024-03-23T05:28:04;9.33;70.14
78315;SHT31;68596;52.080;4.662;2024-03-23T05:30:53;9.34;70.02
78315;SHT31;68596;52.080;4.662;2024-03-23T05:33:38;9.37;70.16
78315;SHT31;68596;52.080;4.662;2024-03-23T05:36:22;9.43;70.01
78315;SHT31;68596;52.080;4.662;2024-03-23T05:39:08;9.44;70.30
78315;SHT31;68596;52.080;4.662;2024-03-23T05:41:53;9.47;70.11
78315;SHT31;68596;52.080;4.662;2024-03-23T05:44:40;9.52;70.07
78315;SHT31;68596;52.080;4.662;2024-03-23T05:47:24;9.52;68.40
78315;SHT31;68596;52.080;4.662;2024-03-23T05:50:09;9.50;68.78
78315;SHT31;68596;52.080;4.662;2024-03-23T05:52:56;9.51;69.36
78315;SHT31;68596;52.080;4.662;2024-03-23T05:55:40;9.52;69.09
78315;SHT31;68596;52.080;4.662;2024-03-23T05:58:24;9.58;68.97
78315;SHT31;68596;52.080;4.662;2024-03-23T06:01:09;9.67;69.33
78315;SHT31;68596;52.080;4.662;2024-03-23T06:03:58;9.67;69.01
78315;SHT31;68596;52.080;4.662;2024-03-23T06:06:42;9.60;69.59
78315;SHT31;68596;52.080;4.662;2024-03-23T06:09:26;9.60;69.61
78315;SHT31;68596;52.080;4.662;2024-03-23T06:12:10;9.65;69.48
78315;SHT31;68596;52.080;4.662;2024-03-23T06:14:55;9.70;69.13
78315;SHT31;68596;52.080;4.662;2024-03-23T06:17:39;9.74;69.49
78315;SHT31;68596;52.080;4.662;2024-03-23T06:20:25;9.80;69.28
78315;SHT31;68596;52.080;4.662;2024-03-23T06:23:09;10.48;67.85
78315;SHT31;68596;52.080;4.662;2024-03-23T06:25:53;11.06;65.70
78315;SHT31;68596;52.080;4.662;2024-03-23T06:28:37;11.41;63.68
78315;SHT31;68596;52.080;4.662;2024-03-23T06:31:21;11.30;63.87
78315;SHT31;68596;52.080;4.662;2024-03-23T06:34:05;11.27;63.61
78315;SHT31;68596;52.080;4.662;2024-03-23T06:36:50;11.14;64.49
78315;SHT31;68596;52.080;4.662;2024-03-23T06:39:34;11.07;65.34
78315;SHT31;68596;52.080;4.662;2024-03-23T06:42:19;11.00;65.39
78315;SHT31;68596;52.080;4.662;2024-03-23T06:45:03;10.99;64.99
78315;SHT31;68596;52.080;4.662;2024-03-23T06:47:49;11.93;64.32
78315;SHT31;68596;52.080;4.662;2024-03-23T06:50:34;12.71;62.34
78315;SHT31;68596;52.080;4.662;2024-03-23T06:53:19;13.42;60.63
78315;SHT31;68596;52.080;4.662;2024-03-23T06:56:03;13.59;59.28
78315;SHT31;68596;52.080;4.662;2024-03-23T06:58:48;13.28;59.13
78315;SHT31;68596;52.080;4.662;2024-03-23T07:01:32;14.12;56.64
78315;SHT31;68596;52.080;4.662;2024-03-23T07:04:16;14.85;55.50
78315;SHT31;68596;52.080;4.662;2024-03-23T07:07:01;15.03;54.45
78315;SHT31;68596;52.080;4.662;2024-03-23T07:09:48;14.74;55.50
78315;SHT31;68596;52.080;4.662;2024-03-23T07:12:32;14.41;54.56
78315;SHT31;68596;52.080;4.662;2024-03-23T07:15:16;13.93;55.80
78315;SHT31;68596;52.080;4.662;2024-03-23T07:18:00;13.96;57.22
78315;SHT31;68596;52.080;4.662;2024-03-23T07:20:55;13.75;58.22
78315;SHT31;68596;52.080;4.662;2024-03-23T07:23:43;13.28;57.25
78315;SHT31;68596;52.080;4.662;2024-03-23T07:26:30;12.95;58.86
78315;SHT31;68596;52.080;4.662;2024-03-23T07:29:14;13.07;58.73
78315;SHT31;68596;52.080;4.662;2024-03-23T07:31:58;12.97;57.29
78315;SHT31;68596;52.080;4.662;2024-03-23T07:34:42;12.71;59.20
78315;SHT31;68596;52.080;4.662;2024-03-23T07:37:28;12.43;59.81
78315;SHT31;68596;52.080;4.662;2024-03-23T07:40:12;12.40;59.65
78315;SHT31;68596;52.080;4.662;2024-03-23T07:42:57;12.64;59.56
78315;SHT31;68596;52.080;4.662;2024-03-23T07:45:41;12.92;56.47
78315;SHT31;68596;52.080;4.662;2024-03-23T07:48:26;13.15;56.33
78315;SHT31;68596;52.080;4.662;2024-03-23T07:51:17;13.08;58.29
78315;SHT31;68596;52.080;4.662;2024-03-23T07:54:01;13.82;57.09
78315;SHT31;68596;52.080;4.662;2024-03-23T07:56:45;14.58;53.88
78315;SHT31;68596;52.080;4.662;2024-03-23T07:59:29;14.96;54.36
78315;SHT31;68596;52.080;4.662;2024-03-23T08:02:15;14.96;53.08
78315;SHT31;68596;52.080;4.662;2024-03-23T08:04:59;15.08;53.89
78315;SHT31;68596;52.080;4.662;2024-03-23T08:07:43;15.22;52.91
78315;SHT31;68596;52.080;4.662;2024-03-23T08:10:27;14.75;52.78
78315;SHT31;68596;52.080;4.662;2024-03-23T08:13:12;14.30;52.85
78315;SHT31;68596;52.080;4.662;2024-03-23T08:15:58;13.97;55.31
78315;SHT31;68596;52.080;4.662;2024-03-23T08:18:42;13.76;54.06
78315;SHT31;68596;52.080;4.662;2024-03-23T08:21:26;13.24;54.89
78315;SHT31;68596;52.080;4.662;2024-03-23T08:24:11;12.77;56.96
78315;SHT31;68596;52.080;4.662;2024-03-23T08:26:55;12.33;60.56
78315;SHT31;68596;52.080;4.662;2024-03-23T08:29:39;12.13;59.52
78315;SHT31;68596;52.080;4.662;2024-03-23T08:32:23;12.03;60.51
78315;SHT31;68596;52.080;4.662;2024-03-23T08:35:08;11.78;60.15
78315;SHT31;68596;52.080;4.662;2024-03-23T08:37:52;12.05;61.37
78315;SHT31;68596;52.080;4.662;2024-03-23T08:40:36;13.01;60.57
78315;SHT31;68596;52.080;4.662;2024-03-23T08:43:20;13.42;56.41
78315;SHT31;68596;52.080;4.662;2024-03-23T08:46:09;13.56;54.45
78315;SHT31;68596;52.080;4.662;2024-03-23T08:48:53;13.99;57.12
78315;SHT31;68596;52.080;4.662;2024-03-23T08:51:37;15.06;52.95
78315;SHT31;68596;52.080;4.662;2024-03-23T08:54:22;15.42;52.19
78315;SHT31;68596;52.080;4.662;2024-03-23T08:57:07;15.25;52.22
78315;SHT31;68596;52.080;4.662;2024-03-23T08:59:51;14.89;51.54
78315;SHT31;68596;52.080;4.662;2024-03-23T09:02:35;14.38;53.09
78315;SHT31;68596;52.080;4.662;2024-03-23T09:05:19;14.14;52.91
78315;SHT31;68596;52.080;4.662;2024-03-23T09:08:04;13.69;53.56
78315;SHT31;68596;52.080;4.662;2024-03-23T09:10:48;13.32;55.38
78315;SHT31;68596;52.080;4.662;2024-03-23T09:13:36;12.94;53.95
78315;SHT31;68596;52.080;4.662;2024-03-23T09:16:21;12.73;56.10
78315;SHT31;68596;52.080;4.662;2024-03-23T09:19:05;12.79;55.92
78315;SHT31;68596;52.080;4.662;2024-03-23T09:21:49;12.73;57.58
78315;SHT31;68596;52.080;4.662;2024-03-23T09:24:33;12.54;57.12
78315;SHT31;68596;52.080;4.662;2024-03-23T09:27:17;12.51;57.93
78315;SHT31;68596;52.080;4.662;2024-03-23T09:30:01;12.49;56.51
78315;SHT31;68596;52.080;4.662;2024-03-23T09:32:45;12.73;58.00
78315;SHT31;68596;52.080;4.662;2024-03-23T09:35:30;13.32;57.01
78315;SHT31;68596;52.080;4.662;2024-03-23T09:38:14;13.61;54.48
78315;SHT31;68596;52.080;4.662;2024-03-23T09:40:58;13.67;54.23
78315;SHT31;68596;52.080;4.662;2024-03-23T09:43:43;13.51;54.85
78315;SHT31;68596;52.080;4.662;2024-03-23T09:46:27;13.44;54.98
78315;SHT31;68596;52.080;4.662;2024-03-23T09:49:18;13.25;56.94
78315;SHT31;68596;52.080;4.662;2024-03-23T09:52:03;13.00;55.71
78315;SHT31;68596;52.080;4.662;2024-03-23T09:54:48;12.68;56.71
78315;SHT31;68596;52.080;4.662;2024-03-23T09:57:33;12.51;58.44
78315;SHT31;68596;52.080;4.662;2024-03-23T10:00:17;12.37;57.70
78315;SHT31;68596;52.080;4.662;2024-03-23T10:03:02;12.22;59.21
78315;SHT31;68596;52.080;4.662;2024-03-23T10:05:46;12.13;62.04
78315;SHT31;68596;52.080;4.662;2024-03-23T10:08:30;12.03;63.00
78315;SHT31;68596;52.080;4.662;2024-03-23T10:11:18;11.99;63.75
78315;SHT31;68596;52.080;4.662;2024-03-23T10:14:03;11.98;63.60
78315;SHT31;68596;52.080;4.662;2024-03-23T10:16:47;11.92;61.30
78315;SHT31;68596;52.080;4.662;2024-03-23T10:19:31;11.76;62.83
78315;SHT31;68596;52.080;4.662;2024-03-23T10:22:20;11.61;63.31
78315;SHT31;68596;52.080;4.662;2024-03-23T10:25:09;11.50;63.18
78315;SHT31;68596;52.080;4.662;2024-03-23T10:28:01;11.50;63.01
78315;SHT31;68596;52.080;4.662;2024-03-23T10:30:45;11.52;63.08
78315;SHT31;68596;52.080;4.662;2024-03-23T10:33:29;11.57;63.33
78315;SHT31;68596;52.080;4.662;2024-03-23T10:36:15;11.75;62.84
78315;SHT31;68596;52.080;4.662;2024-03-23T10:38:59;11.95;61.47
78315;SHT31;68596;52.080;4.662;2024-03-23T10:41:45;11.95;59.25
78315;SHT31;68596;52.080;4.662;2024-03-23T10:44:31;12.00;59.33
78315;SHT31;68596;52.080;4.662;2024-03-23T10:47:16;12.19;59.53
78315;SHT31;68596;52.080;4.662;2024-03-23T10:50:00;12.37;61.12
78315;SHT31;68596;52.080;4.662;2024-03-23T10:52:49;12.44;59.43
78315;SHT31;68596;52.080;4.662;2024-03-23T10:55:33;12.39;58.09
78315;SHT31;68596;52.080;4.662;2024-03-23T10:58:38;12.36;58.27
78315;SHT31;68596;52.080;4.662;2024-03-23T11:01:22;12.41;57.20
78315;SHT31;68596;52.080;4.662;2024-03-23T11:04:07;12.29;56.57
78315;SHT31;68596;52.080;4.662;2024-03-23T11:06:50;12.18;58.53
78315;SHT31;68596;52.080;4.662;2024-03-23T11:15:12;12.10;58.46
78315;SHT31;68596;52.080;4.662;2024-03-23T11:18:07;12.13;59.46
78315;SHT31;68596;52.080;4.662;2024-03-23T11:20:55;12.23;58.24
78315;SHT31;68596;52.080;4.662;2024-03-23T11:23:39;12.30;58.02
78315;SHT31;68596;52.080;4.662;2024-03-23T11:26:24;12.33;55.49
78315;SHT31;68596;52.080;4.662;2024-03-23T11:29:12;12.41;57.62
78315;SHT31;68596;52.080;4.662;2024-03-23T11:31:57;12.36;58.19
78315;SHT31;68596;52.080;4.662;2024-03-23T11:34:42;12.40;57.33
78315;SHT31;68596;52.080;4.662;2024-03-23T11:37:26;12.44;57.94
78315;SHT31;68596;52.080;4.662;2024-03-23T11:40:18;12.60;58.92
78315;SHT31;68596;52.080;4.662;2024-03-23T11:43:05;12.64;55.44
78315;SHT31;68596;52.080;4.662;2024-03-23T11:45:51;12.67;56.45
78315;SHT31;68596;52.080;4.662;2024-03-23T11:48:36;12.63;55.02
78315;SHT31;68596;52.080;4.662;2024-03-23T11:51:20;12.43;56.44
78315;SHT31;68596;52.080;4.662;2024-03-23T11:54:08;12.39;56.39
78315;SHT31;68596;52.080;4.662;2024-03-23T11:56:56;12.16;57.46
78315;SHT31;68596;52.080;4.662;2024-03-23T11:59:41;11.95;57.98
78315;SHT31;68596;52.080;4.662;2024-03-23T12:02:26;11.93;57.91
78315;SHT31;68596;52.080;4.662;2024-03-23T12:05:14;12.06;59.53
78315;SHT31;68596;52.080;4.662;2024-03-23T12:08:37;12.12;57.40
78315;SHT31;68596;52.080;4.662;2024-03-23T12:11:23;12.26;58.05
78315;SHT31;68596;52.080;4.662;2024-03-23T12:14:08;12.43;57.47
78315;SHT31;68596;52.080;4.662;2024-03-23T12:16:52;12.63;55.02
78315;SHT31;68596;52.080;4.662;2024-03-23T12:19:37;12.71;54.78
78315;SHT31;68596;52.080;4.662;2024-03-23T12:22:22;12.73;56.05
78315;SHT31;68596;52.080;4.662;2024-03-23T12:25:06;12.77;53.47
78315;SHT31;68596;52.080;4.662;2024-03-23T12:27:50;12.64;53.44
78315;SHT31;68596;52.080;4.662;2024-03-23T12:30:41;12.46;53.38
78315;SHT31;68596;52.080;4.662;2024-03-23T12:33:25;12.15;58.36
78315;SHT31;68596;52.080;4.662;2024-03-23T12:36:10;11.47;62.12
78315;SHT31;68596;52.080;4.662;2024-03-23T12:38:54;10.90;64.57
78315;SHT31;68596;52.080;4.662;2024-03-23T12:41:38;10.45;66.77
78315;SHT31;68596;52.080;4.662;2024-03-23T12:44:22;10.16;67.92
78315;SHT31;68596;52.080;4.662;2024-03-23T12:47:06;10.06;68.42
78315;SHT31;68596;52.080;4.662;2024-03-23T12:49:51;10.06;68.71
78315;SHT31;68596;52.080;4.662;2024-03-23T12:52:36;10.21;68.46
78315;SHT31;68596;52.080;4.662;2024-03-23T12:55:20;10.36;69.32
78315;SHT31;68596;52.080;4.662;2024-03-23T12:58:05;10.41;67.23
78315;SHT31;68596;52.080;4.662;2024-03-23T13:00:49;10.46;67.43
78315;SHT31;68596;52.080;4.662;2024-03-23T13:03:33;10.53;67.61
78315;SHT31;68596;52.080;4.662;2024-03-23T13:06:18;10.59;67.73
78315;SHT31;68596;52.080;4.662;2024-03-23T13:09:03;10.41;67.89
78315;SHT31;68596;52.080;4.662;2024-03-23T13:11:49;10.28;67.92
78315;SHT31;68596;52.080;4.662;2024-03-23T13:14:33;10.13;68.71
78315;SHT31;68596;52.080;4.662;2024-03-23T13:17:17;10.26;69.86
78315;SHT31;68596;52.080;4.662;2024-03-23T13:20:01;10.56;69.87
78315;SHT31;68596;52.080;4.662;2024-03-23T13:22:47;10.81;68.68
78315;SHT31;68596;52.080;4.662;2024-03-23T13:25:31;10.99;66.56
78315;SHT31;68596;52.080;4.662;2024-03-23T13:28:17;11.14;63.17
78315;SHT31;68596;52.080;4.662;2024-03-23T13:31:02;11.15;63.66
78315;SHT31;68596;52.080;4.662;2024-03-23T13:33:47;11.23;63.75
78315;SHT31;68596;52.080;4.662;2024-03-23T13:36:31;11.35;63.07
78315;SHT31;68596;52.080;4.662;2024-03-23T13:39:15;11.45;60.19
78315;SHT31;68596;52.080;4.662;2024-03-23T13:42:03;11.62;58.98
78315;SHT31;68596;52.080;4.662;2024-03-23T13:44:47;11.72;60.82
78315;SHT31;68596;52.080;4.662;2024-03-23T13:47:32;11.68;59.59
78315;SHT31;68596;52.080;4.662;2024-03-23T13:50:16;11.67;59.40
78315;SHT31;68596;52.080;4.662;2024-03-23T13:53:01;11.71;57.52
78315;SHT31;68596;52.080;4.662;2024-03-23T13:55:48;11.68;54.92
78315;SHT31;68596;52.080;4.662;2024-03-23T13:58:32;11.69;58.91
78315;SHT31;68596;52.080;4.662;2024-03-23T14:01:17;11.62;60.91
78315;SHT31;68596;52.080;4.662;2024-03-23T14:04:01;11.64;61.78
78315;SHT31;68596;52.080;4.662;2024-03-23T14:06:46;11.65;62.79
78315;SHT31;68596;52.080;4.662;2024-03-23T14:09:31;11.52;59.55
78315;SHT31;68596;52.080;4.662;2024-03-23T14:12:16;11.48;59.27
78315;SHT31;68596;52.080;4.662;2024-03-23T14:15:05;11.51;60.13
78315;SHT31;68596;52.080;4.662;2024-03-23T14:17:49;11.38;59.32
78315;SHT31;68596;52.080;4.662;2024-03-23T14:20:33;11.39;60.69
78315;SHT31;68596;52.080;4.662;2024-03-23T14:23:17;11.31;59.50
78315;SHT31;68596;52.080;4.662;2024-03-23T14:26:01;11.25;61.05
78315;SHT31;68596;52.080;4.662;2024-03-23T14:28:46;11.25;61.21
78315;SHT31;68596;52.080;4.662;2024-03-23T14:31:30;11.17;61.03
78315;SHT31;68596;52.080;4.662;2024-03-23T14:34:15;11.06;62.33
78315;SHT31;68596;52.080;4.662;2024-03-23T14:36:59;10.92;62.85
78315;SHT31;68596;52.080;4.662;2024-03-23T14:39:44;10.74;64.12
78315;SHT31;68596;52.080;4.662;2024-03-23T14:42:29;10.63;64.53
78315;SHT31;68596;52.080;4.662;2024-03-23T14:45:14;10.63;65.62
78315;SHT31;68596;52.080;4.662;2024-03-23T14:47:59;10.72;65.50
78315;SHT31;68596;52.080;4.662;2024-03-23T14:50:45;10.83;64.40
78315;SHT31;68596;52.080;4.662;2024-03-23T14:53:35;10.99;65.53
78315;SHT31;68596;52.080;4.662;2024-03-23T14:56:19;10.90;63.31
78315;SHT31;68596;52.080;4.662;2024-03-23T14:59:03;10.96;64.09
78315;SHT31;68596;52.080;4.662;2024-03-23T15:01:47;11.03;62.12
78315;SHT31;68596;52.080;4.662;2024-03-23T15:04:32;11.01;62.39
78315;SHT31;68596;52.080;4.662;2024-03-23T15:07:16;11.20;62.37
78315;SHT31;68596;52.080;4.662;2024-03-23T15:10:00;11.35;60.35
78315;SHT31;68596;52.080;4.662;2024-03-23T15:12:44;11.50;60.88
78315;SHT31;68596;52.080;4.662;2024-03-23T15:15:28;11.47;60.33
78315;SHT31;68596;52.080;4.662;2024-03-23T15:18:13;11.27;59.10
78315;SHT31;68596;52.080;4.662;2024-03-23T15:21:00;11.27;60.33
78315;SHT31;68596;52.080;4.662;2024-03-23T15:23:52;11.44;60.23
78315;SHT31;68596;52.080;4.662;2024-03-23T15:26:36;11.52;59.42
78315;SHT31;68596;52.080;4.662;2024-03-23T15:29:21;11.58;58.99
78315;SHT31;68596;52.080;4.662;2024-03-23T15:32:09;11.41;59.85
78315;SHT31;68596;52.080;4.662;2024-03-23T15:34:53;11.41;59.26
78315;SHT31;68596;52.080;4.662;2024-03-23T15:37:37;11.48;60.27
78315;SHT31;68596;52.080;4.662;2024-03-23T15:40:22;11.48;60.90
78315;SHT31;68596;52.080;4.662;2024-03-23T15:43:07;11.48;59.46
78315;SHT31;68596;52.080;4.662;2024-03-23T15:48:39;11.59;57.51
78315;SHT31;68596;52.080;4.662;2024-03-23T15:51:23;11.58;58.48
78315;SHT31;68596;52.080;4.662;2024-03-23T15:54:08;11.55;59.50
78315;SHT31;68596;52.080;4.662;2024-03-23T15:56:51;11.37;59.97
78315;SHT31;68596;52.080;4.662;2024-03-23T15:59:35;11.39;61.47
78315;SHT31;68596;52.080;4.662;2024-03-23T16:02:23;11.42;60.82
78315;SHT31;68596;52.080;4.662;2024-03-23T16:05:07;11.34;59.39
78315;SHT31;68596;52.080;4.662;2024-03-23T16:07:54;11.31;60.07
78315;SHT31;68596;52.080;4.662;2024-03-23T16:10:38;11.23;59.90
78315;SHT31;68596;52.080;4.662;2024-03-23T16:13:23;11.07;59.75
78315;SHT31;68596;52.080;4.662;2024-03-23T16:16:07;11.11;60.40
78315;SHT31;68596;52.080;4.662;2024-03-23T16:18:51;11.10;60.60
78315;SHT31;68596;52.080;4.662;2024-03-23T16:21:35;11.08;61.59
78315;SHT31;68596;52.080;4.662;2024-03-23T16:24:19;10.96;60.89
78315;SHT31;68596;52.080;4.662;2024-03-23T16:27:04;10.96;60.69
78315;SHT31;68596;52.080;4.662;2024-03-23T16:29:48;11.06;60.57
78315;SHT31;68596;52.080;4.662;2024-03-23T16:32:33;11.08;60.83
78315;SHT31;68596;52.080;4.662;2024-03-23T16:35:20;10.72;60.81
78315;SHT31;68596;52.080;4.662;2024-03-23T16:38:05;10.60;62.72
78315;SHT31;68596;52.080;4.662;2024-03-23T16:43:43;10.73;65.93
78315;SHT31;68596;52.080;4.662;2024-03-23T16:46:27;10.38;66.89
78315;SHT31;68596;52.080;4.662;2024-03-23T16:49:11;10.31;66.86
78315;SHT31;68596;52.080;4.662;2024-03-23T16:51:55;10.36;67.01
78315;SHT31;68596;52.080;4.662;2024-03-23T16:54:39;10.49;65.85
78315;SHT31;68596;52.080;4.662;2024-03-23T16:57:24;10.46;65.78
78315;SHT31;68596;52.080;4.662;2024-03-23T17:00:08;10.46;65.35
78315;SHT31;68596;52.080;4.662;2024-03-23T17:02:54;10.50;64.72
78315;SHT31;68596;52.080;4.662;2024-03-23T17:05:39;10.49;65.34
78315;SHT31;68596;52.080;4.662;2024-03-23T17:08:23;10.41;64.99
78315;SHT31;68596;52.080;4.662;2024-03-23T17:11:07;10.32;62.87
78315;SHT31;68596;52.080;4.662;2024-03-23T17:13:53;10.29;64.54
78315;SHT31;68596;52.080;4.662;2024-03-23T17:16:38;10.26;64.00
78315;SHT31;68596;52.080;4.662;2024-03-23T17:19:22;10.21;64.22
78315;SHT31;68596;52.080;4.662;2024-03-23T17:22:06;10.08;64.56
78315;SHT31;68596;52.080;4.662;2024-03-23T17:24:52;10.06;66.41
78315;SHT31;68596;52.080;4.662;2024-03-23T17:27:36;10.06;67.03
78315;SHT31;68596;52.080;4.662;2024-03-23T17:30:20;10.09;66.45
78315;SHT31;68596;52.080;4.662;2024-03-23T17:33:05;10.18;65.98
78315;SHT31;68596;52.080;4.662;2024-03-23T17:35:49;10.05;66.57
78315;SHT31;68596;52.080;4.662;2024-03-23T17:38:36;9.95;66.57
78315;SHT31;68596;52.080;4.662;2024-03-23T17:41:22;9.94;67.32
78315;SHT31;68596;52.080;4.662;2024-03-23T17:44:06;9.98;67.66
78315;SHT31;68596;52.080;4.662;2024-03-23T17:46:50;10.01;67.96
78315;SHT31;68596;52.080;4.662;2024-03-23T17:49:34;9.92;68.02
78315;SHT31;68596;52.080;4.662;2024-03-23T17:52:19;9.88;68.42
78315;SHT31;68596;52.080;4.662;2024-03-23T17:55:07;9.87;68.11
78315;SHT31;68596;52.080;4.662;2024-03-23T17:57:51;9.92;67.58
78315;SHT31;68596;52.080;4.662;2024-03-23T18:00:35;9.87;68.36
78315;SHT31;68596;52.080;4.662;2024-03-23T18:03:19;9.91;68.42
78315;SHT31;68596;52.080;4.662;2024-03-23T18:06:04;9.88;68.20
78315;SHT31;68596;52.080;4.662;2024-03-23T18:08:49;9.95;67.20
78315;SHT31;68596;52.080;4.662;2024-03-23T18:11:34;9.88;67.26
78315;SHT31;68596;52.080;4.662;2024-03-23T18:14:19;9.88;67.40
78315;SHT31;68596;52.080;4.662;2024-03-23T18:17:03;9.84;67.23
78315;SHT31;68596;52.080;4.662;2024-03-23T18:19:48;9.84;67.75
78315;SHT31;68596;52.080;4.662;2024-03-23T18:22:32;9.77;67.64
78315;SHT31;68596;52.080;4.662;2024-03-23T18:25:16;9.80;67.71
78315;SHT31;68596;52.080;4.662;2024-03-23T18:28:00;9.87;68.13
78315;SHT31;68596;52.080;4.662;2024-03-23T18:30:45;9.91;68.27